sensor_id;sensor_type;location;lat;lon;timestamp;P1;durP1;ratioP1;P2;durP2;ratioP2
48993;SDS011;34804;49.214;12.276;2022-08-14T00:01:30;10.20;;;7.97;;
48993;SDS011;34804;49.214;12.276;2022-08-14T00:03:58;11.95;;;8.45;;
48993;SDS011;34804;49.214;12.276;2022-08-14T00:06:26;11.75;;;8.73;;
48993;SDS011;34804;49.214;12.276;2022-08-14T00:08:54;11.35;;;9.43;;
48993;SDS011;34804;49.214;12.276;2022-08-14T00:11:25;11.68;;;9.10;;
48993;SDS011;34804;49.214;12.276;2022-08-14T00:13:57;10.45;;;8.68;;
48993;SDS011;34804;49.214;12.276;2022-08-14T00:16:28;13.45;;;9.88;;
48993;SDS011;34804;49.214;12.276;2022-08-14T00:19:10;11.82;;;7.85;;
48993;SDS011;34804;49.214;12.276;2022-08-14T00:21:45;10.43;;;8.20;;
48993;SDS011;34804;49.214;12.276;2022-08-14T00:24:17;11.98;;;8.35;;
48993;SDS011;34804;49.214;12.276;2022-08-14T00:26:55;9.35;;;8.00;;
48993;SDS011;34804;49.214;12.276;2022-08-14T00:29:28;13.48;;;8.95;;
48993;SDS011;34804;49.214;12.276;2022-08-14T00:32:05;12.57;;;9.68;;
48993;SDS011;34804;49.214;12.276;2022-08-14T00:34:52;11.10;;;8.45;;
48993;SDS011;34804;49.214;12.276;2022-08-14T00:37:21;12.38;;;8.52;;
48993;SDS011;34804;49.214;12.276;2022-08-14T00:39:48;12.32;;;7.78;;
48993;SDS011;34804;49.214;12.276;2022-08-14T00:42:19;9.63;;;7.50;;
48993;SDS011;34804;49.214;12.276;2022-08-14T00:45:09;9.45;;;7.55;;
48993;SDS011;34804;49.214;12.276;2022-08-14T00:47:40;10.45;;;7.60;;
48993;SDS011;34804;49.214;12.276;2022-08-14T00:50:11;10.45;;;8.57;;
48993;SDS011;34804;49.214;12.276;2022-08-14T00:52:46;9.30;;;7.63;;
48993;SDS011;34804;49.214;12.276;2022-08-14T00:55:21;10.85;;;7.85;;
48993;SDS011;34804;49.214;12.276;2022-08-14T00:57:48;11.02;;;8.02;;
48993;SDS011;34804;49.214;12.276;2022-08-14T01:00:36;10.80;;;7.57;;
48993;SDS011;34804;49.214;12.276;2022-08-14T01:03:17;11.05;;;7.57;;
48993;SDS011;34804;49.214;12.276;2022-08-14T01:05:46;9.45;;;7.70;;
48993;SDS011;34804;49.214;12.276;2022-08-14T01:08:25;11.52;;;8.82;;
48993;SDS011;34804;49.214;12.276;2022-08-14T01:11:13;13.43;;;9.10;;
48993;SDS011;34804;49.214;12.276;2022-08-14T01:13:45;12.18;;;8.23;;
48993;SDS011;34804;49.214;12.276;2022-08-14T01:16:26;13.55;;;8.02;;
48993;SDS011;34804;49.214;12.276;2022-08-14T01:18:57;10.85;;;8.75;;
48993;SDS011;34804;49.214;12.276;2022-08-14T01:21:45;10.25;;;7.55;;
48993;SDS011;34804;49.214;12.276;2022-08-14T01:24:19;10.57;;;8.07;;
48993;SDS011;34804;49.214;12.276;2022-08-14T01:27:00;11.30;;;8.50;;
48993;SDS011;34804;49.214;12.276;2022-08-14T01:29:32;10.53;;;8.03;;
48993;SDS011;34804;49.214;12.276;2022-08-14T01:32:23;10.70;;;7.93;;
48993;SDS011;34804;49.214;12.276;2022-08-14T01:34:50;11.27;;;8.80;;
48993;SDS011;34804;49.214;12.276;2022-08-14T01:37:44;12.15;;;9.23;;
48993;SDS011;34804;49.214;12.276;2022-08-14T01:40:25;13.52;;;9.50;;
48993;SDS011;34804;49.214;12.276;2022-08-14T01:43:12;12.48;;;8.73;;
48993;SDS011;34804;49.214;12.276;2022-08-14T01:45:47;10.60;;;8.13;;
48993;SDS011;34804;49.214;12.276;2022-08-14T01:48:31;10.55;;;8.02;;
48993;SDS011;34804;49.214;12.276;2022-08-14T01:51:03;12.52;;;8.50;;
48993;SDS011;34804;49.214;12.276;2022-08-14T01:53:46;11.05;;;8.45;;
48993;SDS011;34804;49.214;12.276;2022-08-14T01:56:22;12.55;;;9.07;;
48993;SDS011;34804;49.214;12.276;2022-08-14T02:01:44;13.63;;;9.55;;
48993;SDS011;34804;49.214;12.276;2022-08-14T02:04:24;12.65;;;9.38;;
48993;SDS011;34804;49.214;12.276;2022-08-14T02:07:16;12.50;;;9.85;;
48993;SDS011;34804;49.214;12.276;2022-08-14T02:10:05;13.13;;;9.48;;
48993;SDS011;34804;49.214;12.276;2022-08-14T02:12:38;13.13;;;9.85;;
48993;SDS011;34804;49.214;12.276;2022-08-14T02:15:07;11.50;;;9.75;;
48993;SDS011;34804;49.214;12.276;2022-08-14T02:17:35;10.52;;;8.02;;
48993;SDS011;34804;49.214;12.276;2022-08-14T02:20:03;11.95;;;8.05;;
48993;SDS011;34804;49.214;12.276;2022-08-14T02:22:33;10.45;;;8.10;;
48993;SDS011;34804;49.214;12.276;2022-08-14T02:25:12;11.75;;;9.10;;
48993;SDS011;34804;49.214;12.276;2022-08-14T02:27:42;15.55;;;9.90;;
48993;SDS011;34804;49.214;12.276;2022-08-14T02:30:30;12.77;;;9.90;;
48993;SDS011;34804;49.214;12.276;2022-08-14T02:32:59;11.40;;;8.00;;
48993;SDS011;34804;49.214;12.276;2022-08-14T02:35:27;10.90;;;8.32;;
48993;SDS011;34804;49.214;12.276;2022-08-14T02:37:58;10.65;;;8.13;;
48993;SDS011;34804;49.214;12.276;2022-08-14T02:40:30;11.32;;;8.77;;
48993;SDS011;34804;49.214;12.276;2022-08-14T02:43:00;10.98;;;8.65;;
48993;SDS011;34804;49.214;12.276;2022-08-14T02:45:29;13.52;;;9.57;;
48993;SDS011;34804;49.214;12.276;2022-08-14T02:48:10;12.60;;;8.93;;
48993;SDS011;34804;49.214;12.276;2022-08-14T02:50:59;12.00;;;8.63;;
48993;SDS011;34804;49.214;12.276;2022-08-14T02:53:30;12.73;;;8.38;;
48993;SDS011;34804;49.214;12.276;2022-08-14T02:55:59;11.68;;;8.90;;
48993;SDS011;34804;49.214;12.276;2022-08-14T02:58:29;10.23;;;7.85;;
48993;SDS011;34804;49.214;12.276;2022-08-14T03:00:58;10.52;;;8.07;;
48993;SDS011;34804;49.214;12.276;2022-08-14T03:03:27;14.18;;;9.85;;
48993;SDS011;34804;49.214;12.276;2022-08-14T03:06:00;12.43;;;9.32;;
48993;SDS011;34804;49.214;12.276;2022-08-14T03:08:30;12.07;;;9.93;;
48993;SDS011;34804;49.214;12.276;2022-08-14T03:11:01;15.02;;;10.23;;
48993;SDS011;34804;49.214;12.276;2022-08-14T03:13:33;12.13;;;9.77;;
48993;SDS011;34804;49.214;12.276;2022-08-14T03:16:04;11.35;;;9.23;;
48993;SDS011;34804;49.214;12.276;2022-08-14T03:18:53;13.88;;;9.50;;
48993;SDS011;34804;49.214;12.276;2022-08-14T03:21:26;11.65;;;9.18;;
48993;SDS011;34804;49.214;12.276;2022-08-14T03:23:56;12.02;;;8.70;;
48993;SDS011;34804;49.214;12.276;2022-08-14T03:26:27;10.45;;;8.23;;
48993;SDS011;34804;49.214;12.276;2022-08-14T03:28:55;14.25;;;9.73;;
48993;SDS011;34804;49.214;12.276;2022-08-14T03:31:27;14.43;;;10.55;;
48993;SDS011;34804;49.214;12.276;2022-08-14T03:33:55;15.13;;;11.75;;
48993;SDS011;34804;49.214;12.276;2022-08-14T03:36:25;14.73;;;11.07;;
48993;SDS011;34804;49.214;12.276;2022-08-14T03:39:12;12.75;;;10.18;;
48993;SDS011;34804;49.214;12.276;2022-08-14T03:41:53;13.57;;;10.00;;
48993;SDS011;34804;49.214;12.276;2022-08-14T03:44:25;15.75;;;10.23;;
48993;SDS011;34804;49.214;12.276;2022-08-14T03:47:12;11.73;;;9.10;;
48993;SDS011;34804;49.214;12.276;2022-08-14T03:49:40;12.30;;;9.63;;
48993;SDS011;34804;49.214;12.276;2022-08-14T03:52:10;13.68;;;9.50;;
48993;SDS011;34804;49.214;12.276;2022-08-14T03:54:58;12.70;;;9.18;;
48993;SDS011;34804;49.214;12.276;2022-08-14T03:57:25;13.75;;;10.50;;
48993;SDS011;34804;49.214;12.276;2022-08-14T03:59:57;13.25;;;10.05;;
48993;SDS011;34804;49.214;12.276;2022-08-14T04:02:31;13.10;;;10.18;;
48993;SDS011;34804;49.214;12.276;2022-08-14T04:05:04;14.43;;;10.73;;
48993;SDS011;34804;49.214;12.276;2022-08-14T04:07:38;14.70;;;10.27;;
48993;SDS011;34804;49.214;12.276;2022-08-14T04:10:15;12.95;;;9.45;;
48993;SDS011;34804;49.214;12.276;2022-08-14T04:12:57;18.17;;;9.98;;
48993;SDS011;34804;49.214;12.276;2022-08-14T04:15:29;14.02;;;10.00;;
48993;SDS011;34804;49.214;12.276;2022-08-14T04:18:20;13.68;;;9.38;;
48993;SDS011;34804;49.214;12.276;2022-08-14T04:20:47;11.90;;;9.45;;
48993;SDS011;34804;49.214;12.276;2022-08-14T04:23:20;13.02;;;10.00;;
48993;SDS011;34804;49.214;12.276;2022-08-14T04:25:49;11.90;;;8.77;;
48993;SDS011;34804;49.214;12.276;2022-08-14T04:28:19;15.07;;;9.68;;
48993;SDS011;34804;49.214;12.276;2022-08-14T04:31:07;14.90;;;9.82;;
48993;SDS011;34804;49.214;12.276;2022-08-14T04:33:36;12.75;;;9.35;;
48993;SDS011;34804;49.214;12.276;2022-08-14T04:36:04;12.32;;;9.63;;
48993;SDS011;34804;49.214;12.276;2022-08-14T04:38:34;12.07;;;9.05;;
48993;SDS011;34804;49.214;12.276;2022-08-14T04:41:22;12.35;;;9.23;;
48993;SDS011;34804;49.214;12.276;2022-08-14T04:44:19;14.52;;;10.40;;
48993;SDS011;34804;49.214;12.276;2022-08-14T04:47:02;14.43;;;10.10;;
48993;SDS011;34804;49.214;12.276;2022-08-14T04:49:49;13.15;;;10.15;;
48993;SDS011;34804;49.214;12.276;2022-08-14T04:52:22;16.70;;;10.40;;
48993;SDS011;34804;49.214;12.276;2022-08-14T04:54:50;15.98;;;11.50;;
48993;SDS011;34804;49.214;12.276;2022-08-14T04:57:19;13.27;;;10.23;;
48993;SDS011;34804;49.214;12.276;2022-08-14T04:59:48;14.98;;;10.15;;
48993;SDS011;34804;49.214;12.276;2022-08-14T05:02:16;19.10;;;11.10;;
48993;SDS011;34804;49.214;12.276;2022-08-14T05:04:43;15.32;;;10.80;;
48993;SDS011;34804;49.214;12.276;2022-08-14T05:07:10;14.75;;;11.20;;
48993;SDS011;34804;49.214;12.276;2022-08-14T05:09:37;14.23;;;11.40;;
48993;SDS011;34804;49.214;12.276;2022-08-14T05:12:13;15.90;;;12.43;;
48993;SDS011;34804;49.214;12.276;2022-08-14T05:15:00;14.43;;;11.20;;
48993;SDS011;34804;49.214;12.276;2022-08-14T05:17:28;16.67;;;13.10;;
48993;SDS011;34804;49.214;12.276;2022-08-14T05:20:09;14.50;;;12.02;;
48993;SDS011;34804;49.214;12.276;2022-08-14T05:22:57;15.88;;;12.70;;
48993;SDS011;34804;49.214;12.276;2022-08-14T05:25:26;17.15;;;13.18;;
48993;SDS011;34804;49.214;12.276;2022-08-14T05:28:09;16.20;;;12.45;;
48993;SDS011;34804;49.214;12.276;2022-08-14T05:30:41;18.02;;;13.65;;
48993;SDS011;34804;49.214;12.276;2022-08-14T05:33:09;19.30;;;14.20;;
48993;SDS011;34804;49.214;12.276;2022-08-14T05:35:37;17.90;;;13.35;;
48993;SDS011;34804;49.214;12.276;2022-08-14T05:38:08;17.65;;;13.77;;
48993;SDS011;34804;49.214;12.276;2022-08-14T05:40:57;17.63;;;12.75;;
48993;SDS011;34804;49.214;12.276;2022-08-14T05:43:25;16.40;;;12.98;;
48993;SDS011;34804;49.214;12.276;2022-08-14T05:46:13;16.10;;;13.00;;
48993;SDS011;34804;49.214;12.276;2022-08-14T05:48:46;16.45;;;13.95;;
48993;SDS011;34804;49.214;12.276;2022-08-14T05:51:14;17.08;;;13.90;;
48993;SDS011;34804;49.214;12.276;2022-08-14T05:53:41;16.70;;;13.60;;
48993;SDS011;34804;49.214;12.276;2022-08-14T05:58:54;15.85;;;12.10;;
48993;SDS011;34804;49.214;12.276;2022-08-14T06:01:21;14.95;;;12.15;;
48993;SDS011;34804;49.214;12.276;2022-08-14T06:03:48;14.88;;;12.00;;
48993;SDS011;34804;49.214;12.276;2022-08-14T06:06:19;14.75;;;11.23;;
48993;SDS011;34804;49.214;12.276;2022-08-14T06:08:46;14.02;;;11.27;;
48993;SDS011;34804;49.214;12.276;2022-08-14T06:11:13;15.32;;;11.13;;
48993;SDS011;34804;49.214;12.276;2022-08-14T06:13:56;11.57;;;9.68;;
48993;SDS011;34804;49.214;12.276;2022-08-14T06:16:23;14.70;;;10.55;;
48993;SDS011;34804;49.214;12.276;2022-08-14T06:18:50;11.70;;;9.68;;
48993;SDS011;34804;49.214;12.276;2022-08-14T06:21:19;12.57;;;9.77;;
48993;SDS011;34804;49.214;12.276;2022-08-14T06:23:47;12.73;;;10.15;;
48993;SDS011;34804;49.214;12.276;2022-08-14T06:26:15;15.77;;;11.38;;
48993;SDS011;34804;49.214;12.276;2022-08-14T06:28:47;12.50;;;10.20;;
48993;SDS011;34804;49.214;12.276;2022-08-14T06:31:17;13.77;;;9.18;;
48993;SDS011;34804;49.214;12.276;2022-08-14T06:33:45;12.98;;;10.20;;
48993;SDS011;34804;49.214;12.276;2022-08-14T06:36:32;13.30;;;9.55;;
48993;SDS011;34804;49.214;12.276;2022-08-14T06:39:02;11.25;;;8.82;;
48993;SDS011;34804;49.214;12.276;2022-08-14T06:41:33;11.30;;;8.35;;
48993;SDS011;34804;49.214;12.276;2022-08-14T06:44:20;12.63;;;8.70;;
48993;SDS011;34804;49.214;12.276;2022-08-14T06:46:56;11.48;;;8.63;;
48993;SDS011;34804;49.214;12.276;2022-08-14T06:49:24;10.40;;;8.27;;
48993;SDS011;34804;49.214;12.276;2022-08-14T06:51:52;11.18;;;8.35;;
48993;SDS011;34804;49.214;12.276;2022-08-14T06:54:19;11.35;;;8.05;;
48993;SDS011;34804;49.214;12.276;2022-08-14T06:56:46;11.52;;;8.35;;
48993;SDS011;34804;49.214;12.276;2022-08-14T06:59:22;9.02;;;7.18;;
48993;SDS011;34804;49.214;12.276;2022-08-14T07:01:48;9.52;;;7.25;;
48993;SDS011;34804;49.214;12.276;2022-08-14T07:04:39;9.38;;;7.90;;
48993;SDS011;34804;49.214;12.276;2022-08-14T07:07:24;11.63;;;7.43;;
48993;SDS011;34804;49.214;12.276;2022-08-14T07:09:54;11.60;;;7.90;;
48993;SDS011;34804;49.214;12.276;2022-08-14T07:12:20;8.95;;;7.53;;
48993;SDS011;34804;49.214;12.276;2022-08-14T07:15:08;10.10;;;7.32;;
48993;SDS011;34804;49.214;12.276;2022-08-14T07:17:46;9.10;;;7.30;;
48993;SDS011;34804;49.214;12.276;2022-08-14T07:20:19;10.40;;;7.05;;
48993;SDS011;34804;49.214;12.276;2022-08-14T07:22:57;10.70;;;7.28;;
48993;SDS011;34804;49.214;12.276;2022-08-14T07:25:34;9.23;;;7.45;;
48993;SDS011;34804;49.214;12.276;2022-08-14T07:28:10;8.82;;;6.72;;
48993;SDS011;34804;49.214;12.276;2022-08-14T07:30:52;11.55;;;6.63;;
48993;SDS011;34804;49.214;12.276;2022-08-14T07:33:32;11.90;;;6.88;;
48993;SDS011;34804;49.214;12.276;2022-08-14T07:36:09;9.85;;;6.38;;
48993;SDS011;34804;49.214;12.276;2022-08-14T07:38:59;8.13;;;6.72;;
48993;SDS011;34804;49.214;12.276;2022-08-14T07:41:38;8.38;;;6.22;;
48993;SDS011;34804;49.214;12.276;2022-08-14T07:44:07;9.63;;;6.25;;
48993;SDS011;34804;49.214;12.276;2022-08-14T07:46:56;8.98;;;6.03;;
48993;SDS011;34804;49.214;12.276;2022-08-14T07:49:23;7.22;;;5.80;;
48993;SDS011;34804;49.214;12.276;2022-08-14T07:51:50;8.05;;;6.15;;
48993;SDS011;34804;49.214;12.276;2022-08-14T07:54:17;8.45;;;5.80;;
48993;SDS011;34804;49.214;12.276;2022-08-14T07:56:55;10.00;;;5.97;;
48993;SDS011;34804;49.214;12.276;2022-08-14T07:59:31;9.93;;;5.97;;
48993;SDS011;34804;49.214;12.276;2022-08-14T08:02:12;8.70;;;5.80;;
48993;SDS011;34804;49.214;12.276;2022-08-14T08:04:45;8.75;;;5.55;;
48993;SDS011;34804;49.214;12.276;2022-08-14T08:07:20;8.25;;;5.50;;
48993;SDS011;34804;49.214;12.276;2022-08-14T08:09:52;6.90;;;5.15;;
48993;SDS011;34804;49.214;12.276;2022-08-14T08:12:21;7.80;;;5.50;;
48993;SDS011;34804;49.214;12.276;2022-08-14T08:14:55;7.57;;;5.03;;
48993;SDS011;34804;49.214;12.276;2022-08-14T08:17:35;8.57;;;5.68;;
48993;SDS011;34804;49.214;12.276;2022-08-14T08:20:11;7.57;;;4.97;;
48993;SDS011;34804;49.214;12.276;2022-08-14T08:22:48;6.47;;;4.88;;
48993;SDS011;34804;49.214;12.276;2022-08-14T08:25:26;7.50;;;5.40;;
48993;SDS011;34804;49.214;12.276;2022-08-14T08:30:53;6.35;;;4.78;;
48993;SDS011;34804;49.214;12.276;2022-08-14T08:33:28;6.55;;;5.05;;
48993;SDS011;34804;49.214;12.276;2022-08-14T08:36:04;6.82;;;4.90;;
48993;SDS011;34804;49.214;12.276;2022-08-14T08:38:38;6.82;;;5.40;;
48993;SDS011;34804;49.214;12.276;2022-08-14T08:41:25;7.63;;;5.43;;
48993;SDS011;34804;49.214;12.276;2022-08-14T08:44:02;7.25;;;5.05;;
48993;SDS011;34804;49.214;12.276;2022-08-14T08:46:42;7.22;;;5.35;;
48993;SDS011;34804;49.214;12.276;2022-08-14T08:49:13;9.68;;;5.47;;
48993;SDS011;34804;49.214;12.276;2022-08-14T08:51:40;7.57;;;5.38;;
48993;SDS011;34804;49.214;12.276;2022-08-14T08:54:13;7.75;;;5.50;;
48993;SDS011;34804;49.214;12.276;2022-08-14T08:56:49;10.23;;;5.30;;
48993;SDS011;34804;49.214;12.276;2022-08-14T08:59:23;9.13;;;4.88;;
48993;SDS011;34804;49.214;12.276;2022-08-14T09:02:03;7.53;;;5.30;;
48993;SDS011;34804;49.214;12.276;2022-08-14T09:04:36;7.72;;;5.30;;
48993;SDS011;34804;49.214;12.276;2022-08-14T09:07:18;7.25;;;5.13;;
48993;SDS011;34804;49.214;12.276;2022-08-14T09:09:53;8.68;;;5.20;;
48993;SDS011;34804;49.214;12.276;2022-08-14T09:12:26;6.90;;;5.32;;
48993;SDS011;34804;49.214;12.276;2022-08-14T09:15:02;6.90;;;5.57;;
48993;SDS011;34804;49.214;12.276;2022-08-14T09:17:38;7.40;;;5.60;;
48993;SDS011;34804;49.214;12.276;2022-08-14T09:20:07;8.93;;;5.60;;
48993;SDS011;34804;49.214;12.276;2022-08-14T09:22:38;8.23;;;5.35;;
48993;SDS011;34804;49.214;12.276;2022-08-14T09:25:13;8.05;;;5.55;;
48993;SDS011;34804;49.214;12.276;2022-08-14T09:27:42;7.10;;;5.50;;
48993;SDS011;34804;49.214;12.276;2022-08-14T09:30:09;7.97;;;5.63;;
48993;SDS011;34804;49.214;12.276;2022-08-14T09:35:59;8.38;;;6.30;;
48993;SDS011;34804;49.214;12.276;2022-08-14T09:41:49;7.43;;;5.43;;
48993;SDS011;34804;49.214;12.276;2022-08-14T09:45:14;8.68;;;5.57;;
48993;SDS011;34804;49.214;12.276;2022-08-14T09:47:50;7.47;;;5.78;;
48993;SDS011;34804;49.214;12.276;2022-08-14T09:50:26;7.45;;;5.50;;
48993;SDS011;34804;49.214;12.276;2022-08-14T09:53:02;8.10;;;5.63;;
48993;SDS011;34804;49.214;12.276;2022-08-14T09:55:31;7.00;;;5.57;;
48993;SDS011;34804;49.214;12.276;2022-08-14T09:58:13;7.70;;;5.88;;
48993;SDS011;34804;49.214;12.276;2022-08-14T10:03:32;8.27;;;5.97;;
48993;SDS011;34804;49.214;12.276;2022-08-14T10:08:38;7.13;;;5.57;;
48993;SDS011;34804;49.214;12.276;2022-08-14T10:11:25;7.20;;;5.20;;
48993;SDS011;34804;49.214;12.276;2022-08-14T10:14:14;7.40;;;5.30;;
48993;SDS011;34804;49.214;12.276;2022-08-14T10:17:00;8.63;;;5.25;;
48993;SDS011;34804;49.214;12.276;2022-08-14T10:19:31;7.68;;;5.57;;
48993;SDS011;34804;49.214;12.276;2022-08-14T10:22:08;7.38;;;5.20;;
48993;SDS011;34804;49.214;12.276;2022-08-14T10:24:55;7.65;;;5.30;;
48993;SDS011;34804;49.214;12.276;2022-08-14T10:27:26;9.05;;;5.03;;
48993;SDS011;34804;49.214;12.276;2022-08-14T10:29:55;7.57;;;5.28;;
48993;SDS011;34804;49.214;12.276;2022-08-14T10:32:26;9.23;;;5.55;;
48993;SDS011;34804;49.214;12.276;2022-08-14T10:35:14;6.95;;;5.25;;
48993;SDS011;34804;49.214;12.276;2022-08-14T10:37:44;7.63;;;5.70;;
48993;SDS011;34804;49.214;12.276;2022-08-14T10:40:15;6.60;;;5.20;;
48993;SDS011;34804;49.214;12.276;2022-08-14T10:43:19;6.80;;;4.97;;
48993;SDS011;34804;49.214;12.276;2022-08-14T10:45:54;6.53;;;5.43;;
48993;SDS011;34804;49.214;12.276;2022-08-14T10:48:56;9.20;;;4.80;;
48993;SDS011;34804;49.214;12.276;2022-08-14T10:51:27;6.20;;;4.78;;
48993;SDS011;34804;49.214;12.276;2022-08-14T10:54:04;6.70;;;5.10;;
48993;SDS011;34804;49.214;12.276;2022-08-14T10:56:55;6.70;;;4.93;;
48993;SDS011;34804;49.214;12.276;2022-08-14T10:59:43;7.95;;;5.32;;
48993;SDS011;34804;49.214;12.276;2022-08-14T11:02:19;7.55;;;5.18;;
48993;SDS011;34804;49.214;12.276;2022-08-14T11:05:15;7.05;;;4.55;;
48993;SDS011;34804;49.214;12.276;2022-08-14T11:07:55;7.15;;;4.72;;
48993;SDS011;34804;49.214;12.276;2022-08-14T11:10:41;7.68;;;5.15;;
48993;SDS011;34804;49.214;12.276;2022-08-14T11:13:09;7.53;;;4.90;;
48993;SDS011;34804;49.214;12.276;2022-08-14T11:15:49;7.20;;;5.05;;
48993;SDS011;34804;49.214;12.276;2022-08-14T11:18:18;6.38;;;4.65;;
48993;SDS011;34804;49.214;12.276;2022-08-14T11:20:56;6.55;;;5.15;;
48993;SDS011;34804;49.214;12.276;2022-08-14T11:23:26;8.43;;;5.20;;
48993;SDS011;34804;49.214;12.276;2022-08-14T11:26:06;6.43;;;4.68;;
48993;SDS011;34804;49.214;12.276;2022-08-14T11:28:39;7.63;;;4.80;;
48993;SDS011;34804;49.214;12.276;2022-08-14T11:31:14;7.13;;;4.90;;
48993;SDS011;34804;49.214;12.276;2022-08-14T11:33:47;6.72;;;4.68;;
48993;SDS011;34804;49.214;12.276;2022-08-14T11:36:15;6.78;;;4.47;;
48993;SDS011;34804;49.214;12.276;2022-08-14T11:38:44;6.97;;;4.63;;
48993;SDS011;34804;49.214;12.276;2022-08-14T11:41:12;8.30;;;4.72;;
48993;SDS011;34804;49.214;12.276;2022-08-14T11:43:43;6.70;;;4.57;;
48993;SDS011;34804;49.214;12.276;2022-08-14T11:46:24;6.50;;;4.72;;
48993;SDS011;34804;49.214;12.276;2022-08-14T11:49:03;7.40;;;5.00;;
48993;SDS011;34804;49.214;12.276;2022-08-14T11:51:32;7.07;;;5.13;;
48993;SDS011;34804;49.214;12.276;2022-08-14T11:54:16;6.38;;;5.20;;
48993;SDS011;34804;49.214;12.276;2022-08-14T11:56:45;6.80;;;4.97;;
48993;SDS011;34804;49.214;12.276;2022-08-14T11:59:16;7.43;;;4.32;;
48993;SDS011;34804;49.214;12.276;2022-08-14T12:01:51;7.28;;;4.90;;
48993;SDS011;34804;49.214;12.276;2022-08-14T12:04:20;5.88;;;4.22;;
48993;SDS011;34804;49.214;12.276;2022-08-14T12:06:58;8.35;;;4.93;;
48993;SDS011;34804;49.214;12.276;2022-08-14T12:09:27;6.70;;;4.63;;
48993;SDS011;34804;49.214;12.276;2022-08-14T12:12:15;7.82;;;4.47;;
48993;SDS011;34804;49.214;12.276;2022-08-14T12:15:01;7.03;;;4.60;;
48993;SDS011;34804;49.214;12.276;2022-08-14T12:17:30;7.15;;;4.60;;
48993;SDS011;34804;49.214;12.276;2022-08-14T12:20:12;8.98;;;4.80;;
48993;SDS011;34804;49.214;12.276;2022-08-14T12:22:41;8.63;;;4.60;;
48993;SDS011;34804;49.214;12.276;2022-08-14T12:25:19;6.63;;;4.72;;
48993;SDS011;34804;49.214;12.276;2022-08-14T12:27:52;6.47;;;4.57;;
48993;SDS011;34804;49.214;12.276;2022-08-14T12:36:18;8.65;;;4.78;;
48993;SDS011;34804;49.214;12.276;2022-08-14T12:38:46;6.93;;;4.70;;
48993;SDS011;34804;49.214;12.276;2022-08-14T12:41:20;7.38;;;4.65;;
48993;SDS011;34804;49.214;12.276;2022-08-14T12:43:50;6.60;;;4.68;;
48993;SDS011;34804;49.214;12.276;2022-08-14T12:46:26;7.57;;;4.82;;
48993;SDS011;34804;49.214;12.276;2022-08-14T12:49:13;8.80;;;4.55;;
48993;SDS011;34804;49.214;12.276;2022-08-14T12:51:43;6.57;;;4.35;;
48993;SDS011;34804;49.214;12.276;2022-08-14T12:54:21;8.00;;;5.05;;
48993;SDS011;34804;49.214;12.276;2022-08-14T12:57:12;6.80;;;4.73;;
48993;SDS011;34804;49.214;12.276;2022-08-14T12:59:45;7.43;;;5.40;;
48993;SDS011;34804;49.214;12.276;2022-08-14T13:02:21;7.95;;;4.55;;
48993;SDS011;34804;49.214;12.276;2022-08-14T13:04:52;8.10;;;5.10;;
48993;SDS011;34804;49.214;12.276;2022-08-14T13:07:22;9.23;;;5.10;;
48993;SDS011;34804;49.214;12.276;2022-08-14T13:09:57;7.65;;;4.68;;
48993;SDS011;34804;49.214;12.276;2022-08-14T13:12:24;6.47;;;5.07;;
48993;SDS011;34804;49.214;12.276;2022-08-14T13:15:02;8.82;;;5.13;;
48993;SDS011;34804;49.214;12.276;2022-08-14T13:17:46;10.48;;;5.32;;
48993;SDS011;34804;49.214;12.276;2022-08-14T13:20:21;6.45;;;4.85;;
48993;SDS011;34804;49.214;12.276;2022-08-14T13:22:52;7.45;;;5.07;;
48993;SDS011;34804;49.214;12.276;2022-08-14T13:25:22;6.50;;;5.00;;
48993;SDS011;34804;49.214;12.276;2022-08-14T13:27:55;7.68;;;4.70;;
48993;SDS011;34804;49.214;12.276;2022-08-14T13:30:25;7.22;;;4.40;;
48993;SDS011;34804;49.214;12.276;2022-08-14T13:32:53;7.35;;;4.97;;
48993;SDS011;34804;49.214;12.276;2022-08-14T13:35:23;8.18;;;4.55;;
48993;SDS011;34804;49.214;12.276;2022-08-14T13:37:51;6.47;;;5.03;;
48993;SDS011;34804;49.214;12.276;2022-08-14T13:40:20;9.07;;;5.05;;
48993;SDS011;34804;49.214;12.276;2022-08-14T13:42:52;6.75;;;5.15;;
48993;SDS011;34804;49.214;12.276;2022-08-14T13:45:23;6.85;;;4.85;;
48993;SDS011;34804;49.214;12.276;2022-08-14T13:48:12;8.68;;;5.30;;
48993;SDS011;34804;49.214;12.276;2022-08-14T13:50:59;6.55;;;5.05;;
48993;SDS011;34804;49.214;12.276;2022-08-14T13:53:28;12.10;;;4.70;;
48993;SDS011;34804;49.214;12.276;2022-08-14T13:55:59;6.22;;;4.57;;
48993;SDS011;34804;49.214;12.276;2022-08-14T13:58:27;7.18;;;4.57;;
48993;SDS011;34804;49.214;12.276;2022-08-14T14:01:01;6.72;;;4.72;;
48993;SDS011;34804;49.214;12.276;2022-08-14T14:03:29;8.45;;;4.70;;
48993;SDS011;34804;49.214;12.276;2022-08-14T14:06:01;7.70;;;4.72;;
48993;SDS011;34804;49.214;12.276;2022-08-14T14:08:29;6.72;;;4.25;;
48993;SDS011;34804;49.214;12.276;2022-08-14T14:11:13;6.05;;;4.30;;
48993;SDS011;34804;49.214;12.276;2022-08-14T14:13:44;6.28;;;4.70;;
48993;SDS011;34804;49.214;12.276;2022-08-14T14:16:12;6.32;;;4.18;;
48993;SDS011;34804;49.214;12.276;2022-08-14T14:18:56;6.38;;;4.47;;
48993;SDS011;34804;49.214;12.276;2022-08-14T14:21:34;5.75;;;3.95;;
48993;SDS011;34804;49.214;12.276;2022-08-14T14:24:02;6.20;;;4.53;;
48993;SDS011;34804;49.214;12.276;2022-08-14T14:26:30;6.10;;;4.18;;
48993;SDS011;34804;49.214;12.276;2022-08-14T14:28:58;6.20;;;4.40;;
48993;SDS011;34804;49.214;12.276;2022-08-14T14:31:27;5.47;;;4.40;;
48993;SDS011;34804;49.214;12.276;2022-08-14T14:33:58;6.30;;;4.53;;
48993;SDS011;34804;49.214;12.276;2022-08-14T14:36:38;8.20;;;4.60;;
48993;SDS011;34804;49.214;12.276;2022-08-14T14:39:15;6.22;;;4.47;;
48993;SDS011;34804;49.214;12.276;2022-08-14T14:41:45;6.00;;;4.10;;
48993;SDS011;34804;49.214;12.276;2022-08-14T14:44:25;5.68;;;3.78;;
48993;SDS011;34804;49.214;12.276;2022-08-14T14:46:57;6.05;;;4.00;;
48993;SDS011;34804;49.214;12.276;2022-08-14T14:49:28;7.40;;;4.30;;
48993;SDS011;34804;49.214;12.276;2022-08-14T14:52:15;6.65;;;4.25;;
48993;SDS011;34804;49.214;12.276;2022-08-14T14:54:52;5.45;;;4.32;;
48993;SDS011;34804;49.214;12.276;2022-08-14T14:57:25;6.07;;;4.03;;
48993;SDS011;34804;49.214;12.276;2022-08-14T15:00:03;5.78;;;3.60;;
48993;SDS011;34804;49.214;12.276;2022-08-14T15:02:42;5.72;;;3.40;;
48993;SDS011;34804;49.214;12.276;2022-08-14T15:05:12;5.72;;;3.33;;
48993;SDS011;34804;49.214;12.276;2022-08-14T15:07:41;5.68;;;3.20;;
48993;SDS011;34804;49.214;12.276;2022-08-14T15:10:11;4.70;;;3.13;;
48993;SDS011;34804;49.214;12.276;2022-08-14T15:12:56;5.85;;;3.40;;
48993;SDS011;34804;49.214;12.276;2022-08-14T15:15:28;4.60;;;3.20;;
48993;SDS011;34804;49.214;12.276;2022-08-14T15:17:58;6.07;;;3.30;;
48993;SDS011;34804;49.214;12.276;2022-08-14T15:20:26;4.72;;;3.20;;
48993;SDS011;34804;49.214;12.276;2022-08-14T15:22:56;4.72;;;3.35;;
48993;SDS011;34804;49.214;12.276;2022-08-14T15:25:33;10.23;;;3.63;;
48993;SDS011;34804;49.214;12.276;2022-08-14T15:28:00;5.95;;;3.70;;
48993;SDS011;34804;49.214;12.276;2022-08-14T15:30:30;5.53;;;3.45;;
48993;SDS011;34804;49.214;12.276;2022-08-14T15:32:58;6.32;;;3.70;;
48993;SDS011;34804;49.214;12.276;2022-08-14T15:35:25;4.85;;;3.53;;
48993;SDS011;34804;49.214;12.276;2022-08-14T15:37:59;5.80;;;3.60;;